createdAt,value
2023-05-11T00:00:37.207Z,101341.81
2023-05-11T00:03:04.004Z,101340.97
2023-05-11T00:05:30.589Z,101335.47
2023-05-11T00:07:57.044Z,101332.72
2023-05-11T00:10:23.671Z,101330.00
2023-05-11T00:12:50.260Z,101330.00
2023-05-11T00:15:16.839Z,101330.00
2023-05-11T00:17:43.394Z,101333.59
2023-05-11T00:20:10.437Z,101322.81
2023-05-11T00:22:37.250Z,101321.94
2023-05-11T00:25:04.534Z,101327.25
2023-05-11T00:27:30.998Z,101325.53
2023-05-11T00:29:58.028Z,101325.53
2023-05-11T00:32:24.647Z,101325.53
2023-05-11T00:34:51.123Z,101327.44
2023-05-11T00:37:17.587Z,101325.53
2023-05-11T00:39:44.166Z,101324.69
2023-05-11T00:42:11.362Z,101322.81
2023-05-11T00:44:37.871Z,101321.09
2023-05-11T00:47:04.786Z,101317.31
2023-05-11T00:49:31.557Z,101323.84
2023-05-11T00:51:58.314Z,101322.13
2023-05-11T00:54:25.310Z,101329.31
2023-05-11T00:56:51.982Z,101321.94
2023-05-11T00:59:18.908Z,101324.69
2023-05-11T01:01:46.141Z,101323.84
2023-05-11T01:04:13.424Z,101327.63
2023-05-11T01:07:11.049Z,101326.75
2023-05-11T01:09:46.865Z,101320.59
2023-05-11T01:12:33.611Z,101325.91
2023-05-11T01:15:12.115Z,101332.44
2023-05-11T01:18:01.540Z,101336.03
2023-05-11T01:20:30.696Z,101332.63
2023-05-11T01:23:25.750Z,101339.81
2023-05-11T01:26:07.544Z,101342.72
2023-05-11T01:29:03.322Z,101336.41
2023-05-11T01:31:33.986Z,101337.97
2023-05-11T01:34:16.873Z,101339.69
2023-05-11T01:36:58.591Z,101337.78
2023-05-11T01:39:39.996Z,101341.38
2023-05-11T01:42:10.534Z,101335.91
2023-05-11T01:44:44.287Z,101344.13
2023-05-11T01:47:13.258Z,101349.63
2023-05-11T01:49:43.850Z,101340.34
2023-05-11T01:52:11.464Z,101343.94
2023-05-11T01:54:40.653Z,101349.44
2023-05-11T01:57:07.608Z,101343.09
2023-05-11T01:59:36.468Z,101349.44
2023-05-11T02:02:04.333Z,101353.88
2023-05-11T02:04:31.921Z,101356.63
2023-05-11T02:07:01.195Z,101354.91
2023-05-11T02:09:30.429Z,101354.91
2023-05-11T02:11:58.664Z,101349.44
2023-05-11T02:14:28.508Z,101349.44
2023-05-11T02:16:57.238Z,101357.47
2023-05-11T02:19:25.269Z,101349.44
2023-05-11T02:21:53.633Z,101351.16
2023-05-11T02:24:21.481Z,101353.03
2023-05-11T02:26:48.014Z,101348.59
2023-05-11T02:29:14.704Z,101349.25
2023-05-11T02:31:44.606Z,101345.66
2023-05-11T02:34:39.023Z,101341.22
2023-05-11T02:37:10.053Z,101339.31
2023-05-11T02:39:38.930Z,101338.47
2023-05-11T02:42:18.526Z,101337.63
2023-05-11T02:44:54.907Z,101332.13
2023-05-11T02:47:25.624Z,101338.66
2023-05-11T02:49:55.725Z,101334.00
2023-05-11T02:52:27.437Z,101334.88
2023-05-11T02:54:56.421Z,101346.88
2023-05-11T02:57:24.155Z,101330.41
2023-05-11T02:59:51.697Z,101335.91
2023-05-11T03:02:18.604Z,101341.38
2023-05-11T03:04:45.399Z,101337.78
2023-05-11T03:07:12.954Z,101339.50
2023-05-11T03:09:39.606Z,101352.34
2023-05-11T03:12:07.255Z,101336.94
2023-05-11T03:14:36.840Z,101349.63
2023-05-11T03:17:04.375Z,101353.22
2023-05-11T03:19:32.017Z,101352.34
2023-05-11T03:22:00.723Z,101342.44
2023-05-11T03:24:28.131Z,101348.75
2023-05-11T03:26:56.765Z,101352.34
2023-05-11T03:29:26.408Z,101356.13
2023-05-11T03:31:54.867Z,101350.66
2023-05-11T03:34:22.685Z,101350.66
2023-05-11T03:36:50.867Z,101348.94
2023-05-11T03:39:18.072Z,101351.69
2023-05-11T03:41:50.388Z,101350.66
2023-05-11T03:44:20.702Z,101350.66
2023-05-11T03:46:50.585Z,101337.97
2023-05-11T03:49:19.488Z,101334.38
2023-05-11T03:51:47.290Z,101342.59
2023-05-11T03:54:14.176Z,101342.59
2023-05-11T03:56:41.007Z,101342.59
2023-05-11T03:59:09.333Z,101348.09
2023-05-11T04:01:36.312Z,101347.06
2023-05-11T04:04:02.973Z,101353.56
2023-05-11T04:06:29.578Z,101351.69
2023-05-11T04:09:05.132Z,101349.97
2023-05-11T04:11:35.445Z,101349.13
2023-05-11T04:14:01.971Z,101353.56
2023-05-11T04:16:28.509Z,101352.72
2023-05-11T04:18:55.074Z,101345.53
2023-05-11T04:21:21.828Z,101359.06
2023-05-11T04:23:48.339Z,101353.75
2023-05-11T04:26:15.062Z,101357.34
2023-05-11T04:28:41.696Z,101360.09
2023-05-11T04:31:08.208Z,101364.72
2023-05-11T04:33:34.704Z,101358.38
2023-05-11T04:36:01.396Z,101362.84
2023-05-11T04:38:28.264Z,101361.97
2023-05-11T04:40:54.810Z,101363.69
2023-05-11T04:43:22.687Z,101362.84
2023-05-11T04:45:50.900Z,101354.63
2023-05-11T04:48:22.819Z,101353.75
2023-05-11T04:50:49.367Z,101356.50
2023-05-11T04:53:18.274Z,101352.72
2023-05-11T04:55:46.190Z,101356.50
2023-05-11T04:58:12.739Z,101353.75
2023-05-11T05:00:39.273Z,101362.84
2023-05-11T05:03:05.951Z,101363.69
2023-05-11T05:05:32.625Z,101358.22
2023-05-11T05:07:59.173Z,101363.69
2023-05-11T05:10:26.086Z,101366.44
2023-05-11T05:12:52.723Z,101370.03
2023-05-11T05:15:19.699Z,101376.38
2023-05-11T05:17:46.250Z,101371.91
2023-05-11T05:20:13.112Z,101379.09
2023-05-11T05:22:39.701Z,101377.22
2023-05-11T05:25:06.891Z,101379.97
2023-05-11T05:27:34.927Z,101383.56
2023-05-11T05:30:04.956Z,101385.44
2023-05-11T05:32:31.664Z,101384.59
2023-05-11T05:34:59.028Z,101388.19
2023-05-11T05:37:26.297Z,101383.56
2023-05-11T05:39:52.777Z,101389.91
2023-05-11T05:42:19.953Z,101400.00
2023-05-11T05:44:46.488Z,101397.28
2023-05-11T05:47:13.978Z,101402.75
2023-05-11T05:49:40.525Z,101412.69
2023-05-11T05:52:07.359Z,101413.53
2023-05-11T05:54:34.171Z,101413.53
2023-05-11T05:57:00.869Z,101409.94
2023-05-11T05:59:27.443Z,101417.13
2023-05-11T06:01:56.654Z,101411.66
2023-05-11T06:04:24.308Z,101411.66
2023-05-11T06:06:50.887Z,101415.44
2023-05-11T06:09:17.841Z,101413.53
2023-05-11T06:11:44.389Z,101414.41
2023-05-11T06:14:11.153Z,101413.53
2023-05-11T06:16:38.414Z,101416.28
2023-05-11T06:19:05.702Z,101417.13
2023-05-11T06:21:32.408Z,101419.03
2023-05-11T06:23:59.072Z,101419.88
2023-05-11T06:26:28.617Z,101421.78
2023-05-11T06:28:55.985Z,101421.78
2023-05-11T06:31:24.400Z,101421.78
2023-05-11T06:33:52.225Z,101424.50
2023-05-11T06:36:23.314Z,101429.13
2023-05-11T06:38:50.121Z,101427.25
2023-05-11T06:41:16.853Z,101431.69
2023-05-11T06:43:43.427Z,101424.50
2023-05-11T06:46:27.529Z,101434.63
2023-05-11T06:48:54.126Z,101434.63
2023-05-11T06:51:22.034Z,101429.13
2023-05-11T06:53:48.747Z,101430.84
2023-05-11T06:56:15.548Z,101435.66
2023-05-11T06:58:42.779Z,101437.38
2023-05-11T07:01:09.348Z,101430.19
2023-05-11T07:03:36.122Z,101436.50
2023-05-11T07:06:03.269Z,101436.50
2023-05-11T07:08:29.880Z,101439.25
2023-05-11T07:10:56.463Z,101448.34
2023-05-11T07:13:23.014Z,101449.19
2023-05-11T07:15:50.156Z,101444.75
2023-05-11T07:18:17.094Z,101445.59
2023-05-11T07:20:43.638Z,101445.59
2023-05-11T07:23:10.178Z,101445.59
2023-05-11T07:25:36.896Z,101451.09
2023-05-11T07:28:03.665Z,101451.09
2023-05-11T07:30:30.137Z,101441.16
2023-05-11T07:32:56.737Z,101450.22
2023-05-11T07:35:24.228Z,101453.81
2023-05-11T07:37:50.924Z,101454.69
2023-05-11T07:40:19.273Z,101450.22
2023-05-11T07:42:46.032Z,101449.38
2023-05-11T07:45:12.618Z,101450.22
2023-05-11T07:47:39.145Z,101450.22
2023-05-11T07:50:06.322Z,101452.13
2023-05-11T07:52:32.913Z,101449.38
2023-05-11T07:54:59.459Z,101450.22
2023-05-11T07:57:26.040Z,101455.72
2023-05-11T07:59:52.523Z,101451.09
2023-05-11T08:02:19.157Z,101445.59
2023-05-11T08:04:46.783Z,101451.09
2023-05-11T08:07:13.835Z,101446.44
2023-05-11T08:09:40.355Z,101451.94
2023-05-11T08:12:07.209Z,101455.53
2023-05-11T08:14:33.673Z,101451.94
2023-05-11T08:17:00.463Z,101450.03
2023-05-11T08:19:27.314Z,101455.53
2023-05-11T08:21:53.891Z,101458.28
2023-05-11T08:24:20.372Z,101459.13
2023-05-11T08:26:47.214Z,101465.47
2023-05-11T08:29:14.081Z,101458.28
2023-05-11T08:31:40.750Z,101461.88
2023-05-11T08:34:18.592Z,101460.84
2023-05-11T08:36:45.791Z,101461.00
2023-05-11T08:39:12.609Z,101450.91
2023-05-11T08:41:39.097Z,101456.38
2023-05-11T08:44:06.417Z,101451.75
2023-05-11T08:46:35.741Z,101454.50
2023-05-11T08:49:02.764Z,101456.19
2023-05-11T08:51:29.309Z,101447.13
2023-05-11T08:53:57.700Z,101450.72
2023-05-11T08:56:26.934Z,101456.03
2023-05-11T08:58:57.775Z,101451.56
2023-05-11T09:01:28.962Z,101452.44
2023-05-11T09:03:56.867Z,101445.22
2023-05-11T09:06:24.644Z,101452.44
2023-05-11T09:08:51.351Z,101449.69
2023-05-11T09:11:18.160Z,101453.28
2023-05-11T09:13:44.874Z,101453.28
2023-05-11T09:16:27.683Z,101453.28
2023-05-11T09:19:02.217Z,101452.44
2023-05-11T09:21:31.054Z,101456.88
2023-05-11T09:23:59.179Z,101456.88
2023-05-11T09:26:28.415Z,101453.28
2023-05-11T09:31:45.278Z,101457.72
2023-05-11T09:34:22.985Z,101454.13
2023-05-11T09:36:54.464Z,101455.16
2023-05-11T09:42:18.184Z,101456.03
2023-05-11T09:44:46.598Z,101451.56
2023-05-11T09:47:16.683Z,101454.31
2023-05-11T09:49:44.334Z,101460.66
2023-05-11T09:52:12.061Z,101456.88
2023-05-11T09:54:51.770Z,101458.78
2023-05-11T09:57:31.836Z,101457.91
2023-05-11T10:00:00.068Z,101457.06
2023-05-11T10:02:34.058Z,101457.06
2023-05-11T10:05:01.711Z,101461.69
2023-05-11T10:07:29.740Z,101459.81
2023-05-11T10:09:59.172Z,101467.19
2023-05-11T10:12:27.289Z,101461.69
2023-05-11T10:15:01.661Z,101457.06
2023-05-11T10:17:28.907Z,101459.97
2023-05-11T10:19:56.989Z,101457.25
2023-05-11T10:22:28.618Z,101452.59
2023-05-11T10:24:57.721Z,101462.72
2023-05-11T10:27:25.583Z,101459.97
2023-05-11T10:29:52.408Z,101459.97
2023-05-11T10:32:20.288Z,101466.31
2023-05-11T10:34:47.944Z,101467.34
2023-05-11T10:37:16.669Z,101461.00
2023-05-11T10:39:46.160Z,101461.88
2023-05-11T10:42:49.854Z,101468.38
2023-05-11T10:45:24.051Z,101473.88
2023-05-11T10:47:50.766Z,101471.31
2023-05-11T10:50:29.446Z,101472.16
2023-05-11T10:53:18.126Z,101465.81
2023-05-11T10:56:02.328Z,101469.59
2023-05-11T10:58:57.951Z,101467.88
2023-05-11T11:01:41.754Z,101467.03
2023-05-11T11:04:10.654Z,101464.28
2023-05-11T11:06:43.260Z,101467.88
2023-05-11T11:09:13.276Z,101478.84
2023-05-11T11:11:42.665Z,101467.88
2023-05-11T11:14:10.203Z,101473.38
2023-05-11T11:16:37.587Z,101471.66
2023-05-11T11:19:29.379Z,101467.88
2023-05-11T11:21:56.985Z,101472.69
2023-05-11T11:24:38.552Z,101468.94
2023-05-11T11:27:06.538Z,101474.59
2023-05-11T11:29:35.161Z,101472.69
2023-05-11T11:32:20.025Z,101478.00
2023-05-11T11:34:47.144Z,101474.59
2023-05-11T11:37:15.788Z,101471.84
2023-05-11T11:39:42.368Z,101469.97
2023-05-11T11:42:28.108Z,101472.53
2023-05-11T11:45:26.974Z,101464.28
2023-05-11T11:48:24.146Z,101457.09
2023-05-11T11:51:03.083Z,101465.50
2023-05-11T11:53:42.465Z,101461.72
2023-05-11T11:56:16.237Z,101463.63
2023-05-11T11:58:46.172Z,101467.22
2023-05-11T12:01:14.337Z,101466.38
2023-05-11T12:03:43.294Z,101464.47
2023-05-11T12:06:11.376Z,101461.72
2023-05-11T12:08:39.128Z,101467.03
2023-05-11T12:11:07.164Z,101463.44
2023-05-11T12:13:34.498Z,101457.97
2023-05-11T12:16:12.566Z,101456.06
2023-05-11T12:18:39.869Z,101461.72
2023-05-11T12:21:06.637Z,101465.16
2023-05-11T12:23:33.473Z,101464.28
2023-05-11T12:26:07.205Z,101457.78
2023-05-11T12:28:33.931Z,101455.22
2023-05-11T12:31:00.828Z,101462.41
2023-05-11T12:33:27.607Z,101462.41
2023-05-11T12:35:56.152Z,101461.38
2023-05-11T12:38:23.440Z,101455.03
2023-05-11T12:40:53.411Z,101462.06
2023-05-11T12:43:21.892Z,101456.75
2023-05-11T12:45:48.770Z,101454.84
2023-05-11T12:48:15.949Z,101449.38
2023-05-11T12:50:46.589Z,101451.94
2023-05-11T12:53:15.036Z,101450.22
2023-05-11T12:55:42.089Z,101452.97
2023-05-11T12:58:12.126Z,101445.59
2023-05-11T13:00:57.062Z,101440.97
2023-05-11T13:03:29.582Z,101449.19
2023-05-11T13:06:12.332Z,101440.09
2023-05-11T13:08:44.034Z,101444.75
2023-05-11T13:11:36.818Z,101442.00
2023-05-11T13:14:16.741Z,101437.38
2023-05-11T13:16:53.799Z,101434.63
2023-05-11T13:19:31.217Z,101443.72
2023-05-11T13:21:58.424Z,101441.81
2023-05-11T13:24:26.093Z,101436.34
2023-05-11T13:26:53.769Z,101430.66
2023-05-11T13:29:20.723Z,101438.03
2023-05-11T13:31:49.370Z,101428.78
2023-05-11T13:34:17.093Z,101426.03
2023-05-11T13:36:43.810Z,101422.44
2023-05-11T13:39:10.772Z,101428.78
2023-05-11T13:41:37.339Z,101428.59
2023-05-11T13:44:04.390Z,101420.38
2023-05-11T13:46:30.877Z,101420.38
2023-05-11T13:48:58.256Z,101423.13
2023-05-11T13:51:24.913Z,101419.34
2023-05-11T13:53:51.690Z,101420.19
2023-05-11T13:56:19.625Z,101421.91
2023-05-11T13:58:46.253Z,101416.59
2023-05-11T14:01:12.925Z,101421.03
2023-05-11T14:03:39.952Z,101412.81
2023-05-11T14:06:06.641Z,101417.28
2023-05-11T14:08:33.179Z,101416.41
2023-05-11T14:10:59.759Z,101428.06
2023-05-11T14:13:26.296Z,101418.97
2023-05-11T14:15:52.898Z,101418.13
2023-05-11T14:18:19.545Z,101413.50
2023-05-11T14:20:46.110Z,101410.75
2023-05-11T14:23:12.624Z,101403.38
2023-05-11T14:25:39.249Z,101408.84
2023-05-11T14:28:05.704Z,101408.00
2023-05-11T14:30:33.012Z,101406.97
2023-05-11T14:33:00.869Z,101406.97
2023-05-11T14:35:27.451Z,101412.44
2023-05-11T14:37:54.721Z,101418.78
2023-05-11T14:40:21.536Z,101409.72
2023-05-11T14:42:48.661Z,101409.72
2023-05-11T14:45:16.710Z,101414.16
2023-05-11T14:47:43.507Z,101415.03
2023-05-11T14:50:10.378Z,101418.78
2023-05-11T14:52:36.837Z,101411.41
2023-05-11T14:55:03.497Z,101417.75
2023-05-11T14:57:30.003Z,101416.91
2023-05-11T15:00:00.247Z,101420.69
2023-05-11T15:02:27.613Z,101414.16
2023-05-11T15:04:54.986Z,101416.06
2023-05-11T15:07:21.552Z,101418.63
2023-05-11T15:09:48.351Z,101413.31
2023-05-11T15:12:14.845Z,101414.16
2023-05-11T15:14:41.314Z,101416.06
2023-05-11T15:17:08.542Z,101420.50
2023-05-11T15:19:35.117Z,101426.00
2023-05-11T15:22:01.612Z,101421.34
2023-05-11T15:24:28.080Z,101421.34
2023-05-11T15:26:54.601Z,101416.72
2023-05-11T15:29:22.240Z,101416.72
2023-05-11T15:31:48.907Z,101414.84
2023-05-11T15:34:15.545Z,101419.31
2023-05-11T15:36:42.164Z,101420.16
2023-05-11T15:39:09.133Z,101417.56
2023-05-11T15:41:38.103Z,101416.56
2023-05-11T15:44:04.657Z,101414.69
2023-05-11T15:46:31.273Z,101421.88
2023-05-11T15:48:59.667Z,101415.34
2023-05-11T15:51:26.726Z,101425.47
2023-05-11T15:53:53.260Z,101421.88
2023-05-11T15:56:19.833Z,101427.38
2023-05-11T15:58:46.635Z,101423.78
2023-05-11T16:01:13.128Z,101426.34
2023-05-11T16:03:39.743Z,101423.59
2023-05-11T16:06:06.565Z,101420.84
2023-05-11T16:08:33.203Z,101417.25
2023-05-11T16:10:59.687Z,101418.09
2023-05-11T16:13:26.198Z,101416.22
2023-05-11T16:15:52.790Z,101420.84
2023-05-11T16:18:20.044Z,101413.66
2023-05-11T16:20:46.756Z,101411.75
2023-05-11T16:23:13.676Z,101411.75
2023-05-11T16:25:40.287Z,101412.63
2023-05-11T16:28:06.806Z,101418.09
2023-05-11T16:30:33.399Z,101414.50
2023-05-11T16:32:59.957Z,101415.34
2023-05-11T16:35:27.142Z,101415.34
2023-05-11T16:37:55.000Z,101417.25
2023-05-11T16:40:21.973Z,101411.75
2023-05-11T16:42:49.007Z,101418.09
2023-05-11T16:45:16.507Z,101411.75
2023-05-11T16:47:45.296Z,101417.25
2023-05-11T16:50:15.879Z,101416.41
2023-05-11T16:52:42.729Z,101422.72
2023-05-11T16:55:09.852Z,101424.63
2023-05-11T16:57:36.378Z,101422.91
2023-05-11T17:00:02.983Z,101426.50
2023-05-11T17:02:29.923Z,101424.63
2023-05-11T17:04:56.429Z,101423.78
2023-05-11T17:07:22.938Z,101422.91
2023-05-11T17:09:52.106Z,101421.03
2023-05-11T17:12:18.571Z,101422.91
2023-05-11T17:14:45.019Z,101423.78
2023-05-11T17:17:11.538Z,101433.03
2023-05-11T17:19:38.340Z,101428.41
2023-05-11T17:22:05.224Z,101430.28
2023-05-11T17:24:31.846Z,101422.91
2023-05-11T17:26:58.567Z,101422.06
2023-05-11T17:29:25.080Z,101416.72
2023-05-11T17:31:52.338Z,101423.91
2023-05-11T17:34:20.022Z,101420.31
2023-05-11T17:36:47.923Z,101423.06
2023-05-11T17:39:15.992Z,101424.09
2023-05-11T17:41:42.909Z,101424.94
2023-05-11T17:44:09.503Z,101425.13
2023-05-11T17:46:36.151Z,101427.88
2023-05-11T17:49:02.883Z,101420.50
2023-05-11T17:51:29.422Z,101419.66
2023-05-11T17:53:56.302Z,101427.03
2023-05-11T17:56:22.866Z,101421.53
2023-05-11T17:58:51.434Z,101429.75
2023-05-11T18:01:18.107Z,101424.28
2023-05-11T18:03:46.114Z,101420.69
2023-05-11T18:06:12.742Z,101424.47
2023-05-11T18:08:40.137Z,101429.94
2023-05-11T18:11:07.579Z,101433.53
2023-05-11T18:13:35.576Z,101433.72
2023-05-11T18:16:02.352Z,101440.91
2023-05-11T18:18:28.940Z,101432.88
2023-05-11T18:20:55.832Z,101440.06
2023-05-11T18:23:22.650Z,101436.47
2023-05-11T18:25:49.204Z,101438.34
2023-05-11T18:28:15.795Z,101437.50
2023-05-11T18:30:42.536Z,101443.84
2023-05-11T18:33:09.106Z,101439.38
2023-05-11T18:35:36.015Z,101449.31
2023-05-11T18:38:04.670Z,101447.63
2023-05-11T18:40:31.209Z,101455.00
2023-05-11T18:42:57.693Z,101448.66
2023-05-11T18:45:24.218Z,101456.88
2023-05-11T18:47:51.022Z,101453.28
2023-05-11T18:50:17.770Z,101458.78
2023-05-11T18:52:44.456Z,101472.47
2023-05-11T18:55:10.964Z,101464.25
2023-05-11T18:57:39.429Z,101462.53
2023-05-11T19:00:07.169Z,101468.88
2023-05-11T19:02:33.989Z,101469.91
2023-05-11T19:05:01.327Z,101469.91
2023-05-11T19:07:28.533Z,101479.00
2023-05-11T19:09:55.427Z,101476.25
2023-05-11T19:12:22.236Z,101472.66
2023-05-11T19:14:48.772Z,101472.66
2023-05-11T19:17:15.433Z,101487.41
2023-05-11T19:19:42.078Z,101483.63
2023-05-11T19:22:09.290Z,101489.28
2023-05-11T19:24:36.153Z,101491.19
2023-05-11T19:27:07.459Z,101496.66
2023-05-11T19:29:35.469Z,101495.81
2023-05-11T19:32:02.848Z,101494.94
2023-05-11T19:34:29.371Z,101500.44
2023-05-11T19:36:55.912Z,101506.78
2023-05-11T19:39:22.430Z,101502.16
2023-05-11T19:41:49.010Z,101513.13
2023-05-11T19:44:15.564Z,101510.56
2023-05-11T19:46:46.782Z,101510.56
2023-05-11T19:49:15.028Z,101511.41
2023-05-11T19:51:42.082Z,101520.66
2023-05-11T19:54:08.717Z,101515.19
2023-05-11T19:56:35.246Z,101520.66
2023-05-11T19:59:02.682Z,101517.94
2023-05-11T20:01:29.214Z,101517.06
2023-05-11T20:03:56.269Z,101519.81
2023-05-11T20:06:23.399Z,101534.38
2023-05-11T20:08:51.604Z,101525.31
2023-05-11T20:11:18.391Z,101529.94
2023-05-11T20:13:45.122Z,101532.66
2023-05-11T20:16:11.845Z,101532.66
2023-05-11T20:18:38.492Z,101538.16
2023-05-11T20:21:05.384Z,101538.16
2023-05-11T20:23:32.034Z,101540.03
2023-05-11T20:25:58.508Z,101540.03
2023-05-11T20:28:27.358Z,101539.19
2023-05-11T20:30:56.235Z,101535.41
2023-05-11T20:35:53.462Z,101538.34
2023-05-11T20:38:20.579Z,101534.75
2023-05-11T20:40:47.229Z,101538.34
2023-05-11T20:43:15.021Z,101535.59
2023-05-11T20:45:42.183Z,101541.06
2023-05-11T20:48:08.901Z,101540.22
2023-05-11T20:50:35.528Z,101541.06
2023-05-11T20:53:02.121Z,101535.59
2023-05-11T20:55:28.796Z,101533.03
2023-05-11T20:57:55.481Z,101525.47
2023-05-11T21:00:22.763Z,101532.84
2023-05-11T21:02:49.696Z,101532.00
2023-05-11T21:05:16.421Z,101530.28
2023-05-11T21:07:42.921Z,101526.50
2023-05-11T21:10:11.442Z,101532.00
2023-05-11T21:12:37.962Z,101531.13
2023-05-11T21:15:05.155Z,101531.13
2023-05-11T21:17:31.677Z,101532.16
2023-05-11T21:19:58.184Z,101528.41
2023-05-11T21:22:24.694Z,101533.03
2023-05-11T21:24:51.231Z,101530.28
2023-05-11T21:27:17.715Z,101533.03
2023-05-11T21:29:44.231Z,101532.16
2023-05-11T21:32:10.769Z,101530.28
2023-05-11T21:34:37.338Z,101534.91
2023-05-11T21:37:04.054Z,101539.38
2023-05-11T21:39:30.601Z,101534.91
2023-05-11T21:41:57.086Z,101530.28
2023-05-11T21:44:23.620Z,101535.78
2023-05-11T21:46:50.475Z,101536.63
2023-05-11T21:49:17.152Z,101534.06
2023-05-11T21:51:43.703Z,101538.50
2023-05-11T21:54:10.362Z,101541.25
2023-05-11T21:56:36.957Z,101534.91
2023-05-11T21:59:03.563Z,101539.53
2023-05-11T22:01:30.202Z,101533.19
2023-05-11T22:03:57.028Z,101535.94
2023-05-11T22:06:23.628Z,101536.81
2023-05-11T22:08:50.591Z,101536.81
2023-05-11T22:11:17.337Z,101537.66
2023-05-11T22:13:44.555Z,101534.06
2023-05-11T22:16:11.166Z,101537.66
2023-05-11T22:18:37.742Z,101534.06
2023-05-11T22:21:04.491Z,101539.53
2023-05-11T22:23:31.854Z,101536.81
2023-05-11T22:25:58.412Z,101534.91
2023-05-11T22:28:24.995Z,101533.19
2023-05-11T22:30:51.487Z,101534.06
2023-05-11T22:33:17.962Z,101542.28
2023-05-11T22:35:44.516Z,101532.34
2023-05-11T22:38:11.287Z,101529.59
2023-05-11T22:40:37.808Z,101532.34
2023-05-11T22:43:04.521Z,101532.34
2023-05-11T22:45:31.115Z,101531.50
2023-05-11T22:47:57.909Z,101529.59
2023-05-11T22:50:24.519Z,101535.09
2023-05-11T22:52:51.013Z,101531.50
2023-05-11T22:55:17.492Z,101528.75
2023-05-11T22:57:44.297Z,101530.63
2023-05-11T23:00:12.126Z,101534.22
2023-05-11T23:02:38.719Z,101531.66
2023-05-11T23:05:05.816Z,101527.03
2023-05-11T23:07:32.258Z,101532.53
2023-05-11T23:09:58.802Z,101529.78
2023-05-11T23:12:25.450Z,101529.78
2023-05-11T23:14:52.317Z,101526.19
2023-05-11T23:17:19.393Z,101517.97
2023-05-11T23:19:45.976Z,101521.56
2023-05-11T23:22:12.463Z,101528.94
2023-05-11T23:24:38.973Z,101527.03
2023-05-11T23:27:05.773Z,101523.44
2023-05-11T23:29:32.309Z,101523.44
2023-05-11T23:31:58.793Z,101519.84
2023-05-11T23:34:25.279Z,101517.97
2023-05-11T23:36:51.864Z,101510.78
2023-05-11T23:39:18.510Z,101515.22
2023-05-11T23:41:44.989Z,101507.00
2023-05-11T23:44:11.732Z,101511.63
2023-05-11T23:46:38.613Z,101504.25
2023-05-11T23:49:05.128Z,101512.47
2023-05-11T23:51:32.363Z,101495.16
2023-05-11T23:53:59.675Z,101504.41
2023-05-11T23:56:26.133Z,101491.56
2023-05-11T23:58:52.614Z,101493.44
